METAR Data
IDs: Format: Raw Decoded Include TAF

Data at: 0347 UTC 06 Dec 2019

FNLU 060300Z 08004KT 9999 FEW020 BKN070 26/23 Q1010 NOSIG

TAF FNLU 052245Z 0600/0706 15006KT 9999 FEW020 BKN030
  TEMPO 0603/0607 VRB03KT 8000 SCT018 BKN025
  BECMG 0608/0610 33005KT 6000 DZ FEW020 BKN050
  TEMPO 0613/0617 25010KT 9999 SCT018 FEW023TCU


No METAR found for FNCA

TAF FNCA 052245Z 0600/0612 VRB03KT 9999 FEW013 BKN030
  TEMPO 0604/0608 09005KT 6000 -TSRA FEW018 FEW022CB BKN030


No METAR found for FNBG

TAF FNBG 052245Z 0600/0612 19006KT 8000 FEW012
  BECMG 0610/0612 29010KT 9999 SCT012


No METAR found for FNHU

TAF FNHU 052245Z 0600/0612 25005KT 8000 FEW018CB BKN023
  PROB30
  TEMPO 0604/0609 VRB03KT 4000 BR SCT016 BKN025


No METAR found for FNUE

TAF FNUE 052245Z 0600/0612 26005KT 8000 FEW017 SCT023
  TEMPO 0602/0608 VRB03KT 2000 TS SHRA BKN023 FEW030CB


No METAR found for FNGI

TAF FNGI 052245Z 0600/0612 03006KT 8000 FEW015CB BKN022
  TEMPO 0608/0612 VRB03KT 5000 -TSRA SCT012 FEW018CB BKN025


No METAR found for FNUB

TAF FNUB 052245Z 0600/0612 33005KT 8000 FEW020
  TEMPO 0608/0612 VRB03KT 6000 -DZRA SCT015 BKN020


No METAR found for FNMO

TAF FNMO 052245Z 0600/0612 18005KT 9000 BKN015
  BECMG 0610/0612 25010KT 9999 SCT018


No METAR found for FNUG
No TAF found for FNUG

No METAR found for FNMA

TAF FNMA 052245Z 0600/0612 26006KT 8000 BKN022 FEW025CB
  TEMPO 0603/0607 VRB03KT 6000 -TSRA FEW016CB BKN020 OVC025


No METAR found for FNSA

TAF FNSA 052245Z 0600/0612 27006KT 8000 FEW015 BKN020
  TEMPO 0603/0608 VRB03KT 4000 TSRA SCT012 FEW017CB BKN022


No METAR found for FNSO

TAF FNSO 052245Z 0600/0612 22005KT 9000 BKN018 FEW022CB
  TEMPO 0603/0608 VRB03KT 6000 TSRA SCT010 FEW018CB BKN022


No METAR found for FNBC
No TAF found for FNBC

No METAR found for FNSU
No TAF found for FNSU

No METAR found for FNDU

TAF FNDU 052245Z 0600/0612 VRB03KT 9000 SCT018 BKN025
  TEMPO 0601/0607 5000 TSRA FEW018CB BKN022
  BECMG 0609/0611 27006KT 8000 NSW FEW020CB SCT030


No METAR found for FNME

TAF FNME 052245Z 0600/0612 VRB03KT 8000 FEW018 BKN023
  TEMPO 0602/0608 4000 TSRA BKN020 FEW025CB


No METAR found for FNCT

TAF FNCT 052245Z 0600/0612 20005KT 8000 NSC
  BECMG 0610/0612 30010KT 9999 SCT012 BKN015


No METAR found for FNKU

TAF FNKU 052245Z 0600/0612 28005KT 9000 FEW016CB BKN022
  PROB30
  TEMPO 0603/0607 VRB03KT 6000 -DZRA SCT016 BKN020